Time;durP1;ratioP1;P1;durP2;ratioP2;P2;SDS_P1;SDS_P2;PMS_P1;PMS_P2;Temp;Humidity;BMP_temperature;BMP_pressure;BME280_temperature;BME280_humidity;BME280_pressure;Samples;Min_cycle;Max_cycle;Signal;HPM_P1;HPM_P2
2021/06/07 00:02:14;;;;;;;27.10;17.88;;;16.10;99.90;;;17.45;90.16;101330.03;5126680;27;20145;-80
2021/06/07 00:04:40;;;;;;;23.08;16.25;;;16.00;99.90;;;17.47;90.29;101327.59;5105587;28;20413;-81
2021/06/07 00:07:10;;;;;;;24.73;17.83;;;16.00;99.90;;;17.43;90.27;101325.97;5090414;28;20028;-81
2021/06/07 00:09:37;;;;;;;24.92;17.35;;;16.00;99.90;;;17.44;90.63;101327.56;5106545;28;20024;-80
2021/06/07 00:12:14;;;;;;;21.30;15.20;;;16.00;99.90;;;17.40;90.54;101328.34;5090539;28;20060;-80
2021/06/07 00:14:41;;;;;;;20.52;14.63;;;16.00;99.90;;;17.38;90.87;101327.13;5089320;28;20133;-80
2021/06/07 00:17:07;;;;;;;26.15;17.55;;;15.90;99.90;;;17.37;91.00;101333.97;5089192;28;20369;-80
2021/06/07 00:19:37;;;;;;;22.63;17.85;;;15.90;99.90;;;17.34;91.01;101329.91;5090318;28;20039;-81
2021/06/07 00:22:05;;;;;;;26.63;18.67;;;15.90;99.90;;;17.33;91.15;101331.13;5090373;28;20028;-81
2021/06/07 00:24:32;;;;;;;27.35;19.70;;;15.90;99.90;;;17.32;91.40;101331.50;5090405;28;20035;-80
2021/06/07 00:26:59;;;;;;;26.50;18.48;;;15.90;99.90;;;17.31;91.26;101330.69;5089332;28;20032;-80
2021/06/07 00:29:25;;;;;;;30.48;21.27;;;15.90;99.90;;;17.32;91.25;101328.69;5091262;28;20221;-81
2021/06/07 00:31:52;;;;;;;24.48;17.88;;;15.90;99.90;;;17.31;91.66;101327.84;5092879;28;20158;-81
2021/06/07 00:34:18;;;;;;;26.65;20.15;;;15.90;99.90;;;17.34;91.29;101332.72;5090850;28;20408;-82
2021/06/07 00:36:44;;;;;;;25.95;18.17;;;15.90;99.90;;;17.35;91.72;101333.53;5090222;28;20447;-81
2021/06/07 00:39:14;;;;;;;26.50;18.75;;;15.90;99.90;;;17.34;91.74;101335.56;5108313;28;20110;-82
2021/06/07 00:41:47;;;;;;;29.65;20.08;;;15.90;99.90;;;17.33;91.82;101328.31;5088676;28;20035;-81
2021/06/07 00:44:20;;;;;;;25.23;18.98;;;15.90;99.90;;;17.32;92.15;101332.31;5089641;28;20115;-84
2021/06/07 00:46:47;;;;;;;24.08;18.35;;;15.90;99.90;;;17.33;91.94;101336.78;5091676;28;20024;-82
2021/06/07 00:49:14;;;;;;;28.58;20.55;;;15.90;99.90;;;17.34;91.82;101338.38;5092773;28;20415;-83
2021/06/07 00:51:42;;;;;;;27.42;21.23;;;15.90;99.90;;;17.31;91.55;101332.69;5094053;28;20034;-82
2021/06/07 00:54:13;;;;;;;25.27;19.27;;;15.90;99.90;;;17.32;91.50;101342.78;5094590;28;20048;-82
2021/06/07 00:56:40;;;;;;;26.73;20.35;;;15.80;99.90;;;17.31;91.12;101332.69;5093607;28;20453;-84
2021/06/07 00:59:06;;;;;;;25.63;19.60;;;15.80;99.90;;;17.31;91.14;101329.88;5094752;28;20032;-84
2021/06/07 01:01:32;;;;;;;25.60;18.80;;;15.90;99.90;;;17.28;91.56;101325.00;5099827;28;20035;-81
2021/06/07 01:04:01;;;;;;;24.08;17.55;;;15.90;99.90;;;17.28;91.29;101336.28;5101737;28;20028;-82
2021/06/07 01:06:29;;;;;;;26.17;16.52;;;15.80;99.90;;;17.27;91.42;101343.16;5094180;28;20524;-82
2021/06/07 01:08:55;;;;;;;26.48;19.52;;;15.80;99.90;;;17.25;91.50;101335.06;5094521;28;20028;-83
2021/06/07 01:11:23;;;;;;;19.85;15.98;;;15.80;99.90;;;17.25;91.56;101328.59;5091686;28;20024;-84
2021/06/07 01:13:53;;;;;;;23.70;18.63;;;15.80;99.90;;;17.25;91.50;101337.06;5094310;28;20085;-82
2021/06/07 01:16:21;;;;;;;23.98;17.30;;;15.80;99.90;;;17.26;91.73;101333.06;5080025;28;20464;-82
2021/06/07 01:18:50;;;;;;;25.90;18.63;;;15.80;99.90;;;17.24;91.72;101333.41;5078070;28;20028;-84
2021/06/07 01:21:24;;;;;;;22.88;18.77;;;15.80;99.90;;;17.25;91.81;101320.13;5076542;28;20040;-82
2021/06/07 01:23:52;;;;;;;23.65;18.05;;;15.80;99.90;;;17.24;91.74;101321.34;5080907;28;20025;-84
2021/06/07 01:26:23;;;;;;;23.88;18.33;;;15.80;99.90;;;17.22;91.65;101329.38;5080313;28;20036;-83
2021/06/07 01:28:50;;;;;;;22.55;18.05;;;15.80;99.90;;;17.24;91.93;101327.78;5081555;28;20035;-81
2021/06/07 01:31:18;;;;;;;29.35;20.85;;;15.80;99.90;;;17.22;92.19;101327.38;5080915;28;20084;-82
2021/06/07 01:33:49;;;;;;;26.42;20.65;;;15.80;99.90;;;17.17;91.86;101329.72;5081675;28;20029;-82
2021/06/07 01:36:16;;;;;;;24.38;17.90;;;15.70;99.90;;;17.19;91.74;101327.31;5077960;28;20504;-81
2021/06/07 01:38:43;;;;;;;23.48;18.98;;;15.80;99.90;;;17.16;91.93;101317.63;5075536;28;20035;-83
2021/06/07 01:41:15;;;;;;;26.67;21.02;;;15.70;99.90;;;17.16;91.88;101323.28;5075555;28;20456;-84
2021/06/07 01:43:43;;;;;;;28.17;19.15;;;15.70;99.90;;;17.17;91.81;101322.09;5076544;28;20029;-82
2021/06/07 01:46:09;;;;;;;26.40;18.92;;;15.70;99.90;;;17.16;91.77;101319.63;5076912;28;20024;-82
2021/06/07 01:48:36;;;;;;;23.58;17.88;;;15.70;99.90;;;17.16;91.67;101325.28;5077151;28;20410;-81
2021/06/07 01:51:07;;;;;;;23.88;19.60;;;15.70;99.90;;;17.18;91.87;101322.88;5076895;28;20040;-82
2021/06/07 01:53:34;;;;;;;27.85;20.67;;;15.70;99.90;;;17.14;91.89;101328.50;5077182;28;20025;-82
2021/06/07 01:56:09;;;;;;;23.17;17.52;;;15.70;99.90;;;17.15;91.81;101318.00;5076875;28;20035;-81
2021/06/07 01:58:37;;;;;;;26.25;18.95;;;15.70;99.90;;;17.17;91.80;101321.25;5076816;28;20066;-83
2021/06/07 02:01:15;;;;;;;24.83;17.27;;;15.70;99.90;;;17.15;91.96;101318.81;5076396;28;20036;-83
2021/06/07 02:03:43;;;;;;;27.90;18.75;;;15.70;99.90;;;17.13;92.23;101315.56;5076701;28;20036;-83
2021/06/07 02:06:17;;;;;;;27.25;19.98;;;15.70;99.90;;;17.12;92.42;101324.41;5094211;28;20369;-83
2021/06/07 02:08:43;;;;;;;29.50;21.02;;;15.60;99.90;;;17.10;92.34;101319.16;5078766;28;20021;-84
2021/06/07 02:11:28;;;;;;;32.35;20.10;;;15.60;99.90;;;17.10;92.58;101322.00;5079261;28;20039;-82
2021/06/07 02:14:03;;;;;;;34.95;23.48;;;15.60;99.90;;;17.06;92.38;101321.13;5078896;28;20408;-80
2021/06/07 02:16:34;;;;;;;34.67;22.90;;;15.60;99.90;;;17.07;92.66;101321.94;5077373;28;20074;-84
2021/06/07 02:19:06;;;;;;;39.25;26.00;;;15.60;99.90;;;17.09;92.65;101325.19;5078167;28;20034;-82
2021/06/07 02:21:35;;;;;;;36.67;23.92;;;15.60;99.90;;;17.06;92.42;101323.13;5078996;28;20030;-82
2021/06/07 02:24:06;;;;;;;31.15;21.75;;;15.60;99.90;;;17.05;92.63;101330.00;5092948;28;20496;-84
2021/06/07 02:26:35;;;;;;;36.75;23.63;;;15.60;99.90;;;17.05;92.67;101333.63;5076533;28;20025;-81
2021/06/07 02:29:13;;;;;;;37.53;24.85;;;15.60;99.90;;;17.04;93.05;101325.53;5078549;28;20063;-81
2021/06/07 02:31:43;;;;;;;33.78;23.60;;;15.60;99.90;;;17.03;92.80;101330.38;5078438;28;20103;-83
2021/06/07 02:34:13;;;;;;;35.75;23.60;;;15.60;99.90;;;17.00;92.59;101321.88;5078625;28;20053;-82
2021/06/07 02:36:43;;;;;;;32.40;22.23;;;15.50;99.90;;;16.96;92.86;101327.47;5078051;28;20472;-84
2021/06/07 02:39:13;;;;;;;35.45;24.27;;;15.50;99.90;;;16.94;92.87;101331.88;5077408;28;20033;-83
2021/06/07 02:41:43;;;;;;;39.17;24.85;;;15.50;99.90;;;16.91;92.91;101329.81;5076269;28;20021;-82
2021/06/07 02:44:10;;;;;;;35.65;23.38;;;15.40;99.90;;;16.84;93.01;101320.09;5077021;28;20039;-83
2021/06/07 02:46:36;;;;;;;33.20;22.50;;;15.40;99.90;;;16.86;92.73;101331.78;5077222;28;20028;-84
2021/06/07 02:49:02;;;;;;;33.65;21.73;;;15.50;99.90;;;16.85;93.05;101329.34;5077786;28;20036;-82
2021/06/07 02:51:28;;;;;;;31.48;21.48;;;15.40;99.90;;;16.85;93.16;101324.53;5083302;28;20048;-83
2021/06/07 02:53:55;;;;;;;36.25;22.95;;;15.40;99.90;;;16.85;93.31;101327.34;5089620;28;20031;-79
2021/06/07 02:56:21;;;;;;;39.38;24.20;;;15.40;99.90;;;16.85;93.09;101330.19;5090810;28;20460;-82
2021/06/07 02:58:47;;;;;;;41.20;23.35;;;15.40;99.90;;;16.81;93.26;101334.13;5086153;28;20066;-84
2021/06/07 03:01:13;;;;;;;35.63;20.70;;;15.40;99.90;;;16.80;93.36;101333.31;5079692;28;20078;-84
2021/06/07 03:03:39;;;;;;;35.83;22.33;;;15.40;99.90;;;16.78;93.20;101329.28;5093040;28;20029;-81
2021/06/07 03:06:08;;;;;;;40.60;23.40;;;15.30;99.90;;;16.77;93.40;101330.44;5083319;28;20037;-83
2021/06/07 03:08:36;;;;;;;34.67;23.23;;;15.40;99.90;;;16.77;93.28;101331.28;5106651;28;20100;-83
2021/06/07 03:11:11;;;;;;;34.15;22.02;;;15.40;99.90;;;16.74;93.59;101329.22;5079469;28;20028;-81
2021/06/07 03:13:40;;;;;;;31.23;21.55;;;15.30;99.90;;;16.74;93.39;101332.03;5080792;28;20036;-83
2021/06/07 03:16:06;;;;;;;38.58;23.08;;;15.30;99.90;;;16.75;93.53;101327.22;5083126;28;20425;-85
2021/06/07 03:18:32;;;;;;;41.53;24.60;;;15.30;99.90;;;16.72;93.83;101325.16;5083494;28;20039;-81
2021/06/07 03:20:58;;;;;;;32.65;21.00;;;15.30;99.90;;;16.71;93.25;101334.81;5094595;28;20041;-78
2021/06/07 03:23:31;;;;;;;33.83;21.77;;;15.20;99.90;;;16.68;93.27;101338.41;5095447;28;20033;-80
2021/06/07 03:25:59;;;;;;;30.65;20.10;;;15.20;99.90;;;16.65;93.47;101340.00;5081421;28;20380;-80
2021/06/07 03:28:26;;;;;;;33.75;22.13;;;15.20;99.90;;;16.67;93.11;101333.94;5075161;28;20475;-80
2021/06/07 03:30:53;;;;;;;40.40;23.50;;;15.20;99.90;;;16.65;93.18;101331.53;5072355;28;20396;-82
2021/06/07 03:33:21;;;;;;;31.90;21.13;;;15.20;99.90;;;16.64;93.01;101327.06;5076692;28;20555;-80
2021/06/07 03:35:52;;;;;;;34.70;23.05;;;15.20;99.90;;;16.65;93.20;101328.69;5075179;28;20462;-82
2021/06/07 03:38:19;;;;;;;35.17;22.25;;;15.20;99.90;;;16.67;93.01;101328.31;5075679;28;20123;-82
2021/06/07 03:40:52;;;;;;;39.33;23.73;;;15.20;99.90;;;16.64;93.09;101334.72;5075148;28;20035;-84
2021/06/07 03:43:32;;;;;;;37.20;23.63;;;15.20;99.90;;;16.66;93.32;101330.31;5083253;28;20016;-80
2021/06/07 03:45:59;;;;;;;36.40;23.15;;;15.20;99.90;;;16.67;93.23;101333.94;5076934;28;20464;-81
2021/06/07 03:48:26;;;;;;;36.38;21.65;;;15.20;99.90;;;16.65;92.96;101334.34;5076455;28;20082;-81
2021/06/07 03:50:53;;;;;;;39.03;23.10;;;15.20;99.90;;;16.62;93.19;101332.28;5072619;28;20056;-81
2021/06/07 03:53:20;;;;;;;40.97;24.17;;;15.20;99.90;;;16.62;92.92;101339.94;5072523;28;20587;-81
2021/06/07 03:55:46;;;;;;;47.22;26.13;;;15.20;99.90;;;16.56;93.16;101331.00;5073716;28;20036;-81
2021/06/07 03:58:12;;;;;;;35.97;22.35;;;15.10;99.90;;;16.56;93.39;101330.19;5072636;28;20036;-83
2021/06/07 04:00:40;;;;;;;42.28;23.50;;;15.10;99.90;;;16.57;93.34;101331.78;5074045;28;20118;-82
2021/06/07 04:03:10;;;;;;;40.13;23.75;;;15.10;99.90;;;16.56;93.33;101324.53;5072720;28;20025;-82
2021/06/07 04:05:38;;;;;;;43.85;25.70;;;15.10;99.90;;;16.56;93.28;101327.38;5071405;28;20048;-82
2021/06/07 04:08:08;;;;;;;38.53;23.13;;;15.10;99.90;;;16.54;93.26;101319.25;5073410;28;20102;-80
2021/06/07 04:10:34;;;;;;;36.83;23.75;;;15.10;99.90;;;16.55;93.07;101326.56;5073967;28;20036;-82
2021/06/07 04:13:00;;;;;;;41.70;26.05;;;15.10;99.90;;;16.54;93.23;101329.72;5073707;28;20055;-84
2021/06/07 04:15:29;;;;;;;38.47;23.17;;;15.10;99.90;;;16.55;93.39;101329.38;5074133;28;20086;-83
2021/06/07 04:17:58;;;;;;;38.10;25.80;;;15.10;99.90;;;16.58;92.92;101334.25;5075552;28;20070;-82
2021/06/07 04:20:31;;;;;;;44.40;27.00;;;15.10;99.90;;;16.57;92.74;101335.44;5078242;28;20051;-83
2021/06/07 04:22:58;;;;;;;39.50;24.75;;;15.10;99.90;;;16.56;92.59;101331.00;5077341;28;20032;-84
2021/06/07 04:25:28;;;;;;;37.45;25.60;;;15.10;99.90;;;16.55;93.03;101342.66;5075873;28;20472;-82
2021/06/07 04:27:58;;;;;;;45.85;28.45;;;15.10;99.90;;;16.57;92.95;101338.25;5075238;28;20035;-82
2021/06/07 04:30:27;;;;;;;49.42;28.77;;;15.10;99.90;;;16.57;92.58;101334.63;5054203;28;20488;-80
2021/06/07 04:32:56;;;;;;;48.22;29.35;;;15.10;99.90;;;16.53;92.15;101326.09;5054260;28;20040;-81
2021/06/07 04:35:23;;;;;;;49.22;32.13;;;15.10;99.90;;;16.53;92.31;101342.19;5053527;28;20036;-80
2021/06/07 04:37:53;;;;;;;51.30;30.70;;;15.10;99.90;;;16.52;92.35;101346.22;5051806;28;20029;-84
2021/06/07 04:40:28;;;;;;;53.03;35.58;;;15.10;99.90;;;16.53;92.30;101331.75;5052957;28;20080;-80
2021/06/07 04:42:57;;;;;;;51.97;32.33;;;15.10;99.90;;;16.57;92.38;101337.44;5061532;28;20040;-82
2021/06/07 04:45:24;;;;;;;57.53;35.08;;;15.10;99.90;;;16.56;92.25;101335.81;5076444;28;20039;-82
2021/06/07 04:47:51;;;;;;;53.58;33.40;;;15.20;99.90;;;16.58;92.20;101334.25;5075199;28;20033;-84
2021/06/07 04:50:21;;;;;;;58.38;35.83;;;15.10;99.90;;;16.60;91.90;101334.66;5075182;28;20028;-85
2021/06/07 04:52:58;;;;;;;49.50;32.10;;;15.10;99.90;;;16.60;92.05;101331.84;5076012;28;20041;-83
2021/06/07 04:55:39;;;;;;;49.75;33.15;;;15.10;99.90;;;16.63;91.96;101335.94;5074124;28;20074;-83
2021/06/07 04:58:17;;;;;;;53.40;34.72;;;15.20;99.90;;;16.65;91.94;101331.53;5078920;28;20033;-85
2021/06/07 05:00:50;;;;;;;54.22;33.00;;;15.20;99.90;;;16.66;91.48;101335.94;5078248;28;20178;-83
2021/06/07 05:03:17;;;;;;;55.22;35.53;;;15.20;99.90;;;16.67;91.56;101336.75;5078557;28;20029;-86
2021/06/07 05:05:45;;;;;;;67.47;34.78;;;15.20;99.90;;;16.68;91.15;101333.56;5077571;28;20031;-82
2021/06/07 05:08:12;;;;;;;57.70;35.63;;;15.20;99.90;;;16.67;91.41;101342.41;5079723;28;20139;-81
2021/06/07 05:10:39;;;;;;;60.90;36.97;;;15.20;99.90;;;16.68;91.38;101333.56;5077094;28;20043;-85
2021/06/07 05:13:11;;;;;;;67.57;39.80;;;15.20;99.90;;;16.65;91.10;101337.16;5079862;28;20032;-83
2021/06/07 05:15:37;;;;;;;58.25;38.08;;;15.20;99.90;;;16.67;90.99;101343.22;5080666;28;20032;-82
2021/06/07 05:18:05;;;;;;;58.58;37.65;;;15.20;99.90;;;16.65;91.05;101344.81;5079705;28;20036;-81
2021/06/07 05:20:31;;;;;;;58.00;36.25;;;15.20;99.90;;;16.65;91.21;101347.63;5082676;28;20029;-85
2021/06/07 05:22:59;;;;;;;53.15;34.17;;;15.20;99.90;;;16.66;91.29;101343.63;5082768;28;20598;-83
2021/06/07 05:25:30;;;;;;;58.35;34.53;;;15.20;99.90;;;16.72;91.08;101347.72;5098435;28;20021;-83
2021/06/07 05:27:59;;;;;;;53.60;33.65;;;15.20;99.90;;;16.78;90.78;101349.00;5082500;28;20613;-83
2021/06/07 05:30:30;;;;;;;57.92;33.13;;;15.30;99.90;;;16.82;91.01;101336.56;5080957;28;20035;-87
2021/06/07 05:32:57;;;;;;;49.45;30.92;;;15.30;99.90;;;16.86;91.02;101345.88;5083399;28;20032;-82
2021/06/07 05:35:30;;;;;;;53.40;33.70;;;15.30;99.90;;;16.90;90.17;101339.47;5083596;28;20036;-85
2021/06/07 05:37:59;;;;;;;49.20;32.15;;;15.30;99.90;;;16.92;90.35;101351.22;5081572;28;20028;-85
2021/06/07 05:40:28;;;;;;;57.72;34.25;;;15.40;99.90;;;16.93;89.69;101347.16;5082857;28;20031;-83
2021/06/07 05:42:55;;;;;;;48.38;30.83;;;15.40;99.90;;;16.97;89.52;101350.84;5088930;28;20054;-84
2021/06/07 05:45:21;;;;;;;51.03;32.63;;;15.40;99.90;;;16.96;89.37;101358.50;5087510;28;20492;-83
2021/06/07 05:47:49;;;;;;;52.75;32.72;;;15.50;99.90;;;16.91;89.22;101356.03;5089640;28;20020;-81
2021/06/07 05:50:21;;;;;;;44.78;29.40;;;15.40;99.90;;;16.94;89.36;101345.97;5073384;28;20107;-82
2021/06/07 05:52:49;;;;;;;47.80;29.48;;;15.40;99.90;;;17.02;89.03;101344.84;5074249;28;20105;-82
2021/06/07 05:55:35;;;;;;;52.83;33.40;;;15.50;99.90;;;17.04;88.52;101356.59;5073746;28;20064;-81
2021/06/07 05:58:11;;;;;;;49.88;30.60;;;15.60;99.90;;;17.09;88.32;101351.41;5077565;28;20365;-82
2021/06/07 06:00:45;;;;;;;54.90;33.95;;;15.60;99.90;;;17.10;88.02;101352.22;5078161;28;20094;-83
2021/06/07 06:03:11;;;;;;;49.70;30.33;;;15.60;99.90;;;17.19;87.85;101356.38;5080861;28;20090;-82
2021/06/07 06:05:39;;;;;;;48.20;29.42;;;15.60;99.90;;;17.26;87.92;101352.81;5077159;28;20067;-84
2021/06/07 06:08:06;;;;;;;56.95;34.83;;;15.70;99.90;;;17.24;87.41;101352.41;5075742;28;20025;-83
2021/06/07 06:10:36;;;;;;;53.17;33.40;;;15.70;99.90;;;17.25;87.52;101354.00;5074720;28;20028;-83
2021/06/07 06:13:06;;;;;;;49.80;31.33;;;15.70;99.90;;;17.28;87.65;101354.03;5085121;28;20028;-82
2021/06/07 06:15:34;;;;;;;56.95;32.80;;;15.70;99.90;;;17.29;87.20;101352.84;5074658;28;20514;-81
2021/06/07 06:18:00;;;;;;;51.75;32.75;;;15.70;99.90;;;17.31;87.04;101352.44;5072936;28;20025;-83
2021/06/07 06:20:29;;;;;;;46.67;31.38;;;15.70;99.90;;;17.29;87.43;101355.69;5074835;28;20475;-82
2021/06/07 06:22:55;;;;;;;51.72;32.78;;;15.80;99.90;;;17.32;87.23;101362.56;5073245;28;20081;-83
2021/06/07 06:25:21;;;;;;;50.63;32.90;;;15.80;99.90;;;17.43;87.22;101359.84;5073503;28;20025;-83
2021/06/07 06:27:47;;;;;;;56.25;34.17;;;15.80;99.90;;;17.53;86.47;101359.94;5074616;28;20040;-83
2021/06/07 06:30:23;;;;;;;57.58;38.85;;;15.90;99.90;;;17.55;86.17;101359.56;5076780;28;20471;-82
2021/06/07 06:32:55;;;;;;;55.30;35.65;;;15.90;99.90;;;17.56;85.97;101355.59;5076468;28;20025;-82
2021/06/07 06:35:21;;;;;;;60.08;35.95;;;15.90;99.90;;;17.65;85.36;101356.06;5074980;28;20032;-82
2021/06/07 06:37:48;;;;;;;62.85;40.53;;;16.00;99.90;;;17.64;85.05;101360.09;5075218;28;20400;-82
2021/06/07 06:40:24;;;;;;;65.22;40.03;;;16.10;99.90;;;17.69;85.26;101354.09;5076295;28;20024;-83
2021/06/07 06:42:54;;;;;;;68.45;41.58;;;16.10;99.90;;;17.70;85.00;101362.16;5076899;28;20055;-84
2021/06/07 06:45:21;;;;;;;63.20;36.22;;;16.10;99.90;;;17.75;84.94;101361.81;5076387;28;20028;-81
2021/06/07 06:47:55;;;;;;;57.92;34.17;;;16.10;99.90;;;17.82;84.20;101363.88;5075270;28;20035;-83
2021/06/07 06:50:23;;;;;;;66.88;38.13;;;16.10;99.90;;;17.90;83.68;101355.09;5076447;28;20418;-81
2021/06/07 06:52:49;;;;;;;49.95;31.73;;;16.20;99.90;;;17.98;83.70;101358.75;5076026;28;20060;-84
2021/06/07 06:55:16;;;;;;;54.28;33.10;;;16.30;99.90;;;18.03;83.51;101364.06;5077119;28;20044;-82
2021/06/07 06:57:42;;;;;;;46.58;30.73;;;16.30;99.90;;;18.08;82.78;101365.72;5076896;28;20095;-84
2021/06/07 07:00:14;;;;;;;49.50;31.83;;;16.40;99.90;;;18.07;83.06;101372.59;5076179;28;20024;-83
2021/06/07 07:02:40;;;;;;;49.72;31.10;;;16.40;99.90;;;18.12;82.88;101375.84;5077573;28;20033;-82
2021/06/07 07:05:07;;;;;;;50.60;32.65;;;16.40;99.90;;;18.21;82.64;101369.84;5074638;28;20507;-83
2021/06/07 07:07:33;;;;;;;51.88;33.38;;;16.50;99.90;;;18.26;82.47;101383.63;5076321;28;20440;-82
2021/06/07 07:09:59;;;;;;;48.88;32.28;;;16.60;99.90;;;18.31;82.11;101386.09;5075544;28;20021;-83
2021/06/07 07:12:26;;;;;;;49.35;32.38;;;16.60;99.90;;;18.35;81.53;101386.94;5075168;28;20095;-84
2021/06/07 07:14:54;;;;;;;58.65;36.45;;;16.60;99.90;;;18.25;81.46;101382.81;5074687;28;20020;-82
2021/06/07 07:17:21;;;;;;;49.15;32.38;;;16.60;99.90;;;18.36;81.25;101385.72;5076088;28;20031;-82
2021/06/07 07:19:48;;;;;;;47.80;30.40;;;16.70;99.90;;;18.33;80.46;101390.13;5073318;28;20021;-81
2021/06/07 07:22:16;;;;;;;45.92;32.17;;;16.70;99.90;;;18.31;80.03;101381.25;5073441;28;20044;-82
2021/06/07 07:24:47;;;;;;;46.10;30.33;;;16.60;99.90;;;18.38;80.24;101381.31;5074746;28;20384;-82
2021/06/07 07:27:18;;;;;;;54.80;37.58;;;16.70;99.90;;;18.47;80.39;101389.44;5075996;28;20021;-82
2021/06/07 07:29:46;;;;;;;54.53;38.30;;;16.80;99.90;;;18.51;80.14;101390.31;5075646;28;20108;-83
2021/06/07 07:32:12;;;;;;;54.25;35.92;;;16.80;99.90;;;18.59;80.22;101382.69;5074727;28;20032;-83
2021/06/07 07:34:40;;;;;;;49.03;34.33;;;16.80;99.90;;;18.68;79.97;101386.78;5074482;28;20037;-83
2021/06/07 07:37:10;;;;;;;52.85;35.90;;;17.00;99.90;;;18.77;79.80;101387.22;5074395;28;20028;-82
2021/06/07 07:39:38;;;;;;;52.28;34.78;;;17.00;99.90;;;18.88;79.31;101384.44;5074789;28;20479;-81
2021/06/07 07:42:07;;;;;;;47.47;32.70;;;17.20;99.90;;;19.02;79.34;101395.84;5081382;28;20083;-84
2021/06/07 07:44:34;;;;;;;49.15;33.53;;;17.20;99.90;;;19.15;78.79;101393.47;5080873;28;20021;-84
2021/06/07 07:47:02;;;;;;;55.55;34.78;;;17.30;99.90;;;19.23;77.91;101390.25;5079192;28;20020;-84
2021/06/07 07:49:29;;;;;;;52.88;35.28;;;17.40;99.90;;;19.34;77.41;101391.09;5080584;28;20027;-81
2021/06/07 07:51:55;;;;;;;49.92;34.65;;;17.50;99.90;;;19.42;77.03;101389.13;5079774;28;20107;-86
2021/06/07 07:54:20;;;;;;;54.58;37.92;;;17.60;99.90;;;19.44;76.14;101390.34;5079865;28;20044;-85
2021/06/07 07:56:46;;;;;;;54.35;36.03;;;17.60;99.90;;;19.65;75.43;101400.13;5082070;28;20058;-82
2021/06/07 07:59:12;;;;;;;46.03;31.23;;;17.80;99.90;;;19.69;75.77;101393.22;5083282;28;20088;-82
2021/06/07 08:01:41;;;;;;;50.50;35.80;;;17.80;99.90;;;19.78;75.47;101390.00;5081700;28;20462;-83
2021/06/07 08:04:10;;;;;;;53.03;36.75;;;17.80;99.90;;;19.77;74.58;101391.22;5092992;28;20036;-82
2021/06/07 08:06:36;;;;;;;63.90;41.63;;;17.90;99.90;;;19.79;74.68;101386.78;5089080;28;20036;-85
2021/06/07 08:09:03;;;;;;;59.03;40.63;;;18.00;99.90;;;19.74;73.78;101384.34;5080769;28;20024;-84
2021/06/07 08:11:29;;;;;;;55.13;39.17;;;18.10;99.90;;;19.87;74.06;101393.25;5080621;28;20025;-84
2021/06/07 08:13:55;;;;;;;58.92;39.10;;;18.00;99.90;;;19.83;74.02;101393.25;5079429;28;20711;-81
2021/06/07 08:16:21;;;;;;;45.65;31.25;;;18.00;99.90;;;19.93;73.99;101389.63;5080889;28;20021;-84
2021/06/07 08:18:47;;;;;;;55.85;40.47;;;18.00;99.90;;;19.96;73.95;101388.81;5079893;28;20403;-83
2021/06/07 08:21:13;;;;;;;52.30;36.92;;;18.10;99.90;;;19.90;74.11;101392.47;5081995;28;20020;-82
2021/06/07 08:23:39;;;;;;;52.22;36.13;;;18.00;99.90;;;19.81;73.98;101390.00;5083798;28;20035;-82
2021/06/07 08:26:06;;;;;;;45.38;32.30;;;18.00;99.90;;;19.92;73.83;101387.19;5086416;28;20029;-83
2021/06/07 08:28:32;;;;;;;43.67;33.58;;;18.10;99.90;;;20.72;71.85;101390.38;5086094;28;20025;-86
2021/06/07 08:30:58;;;;;;;39.85;30.17;;;18.70;99.90;;;21.19;69.31;101389.81;5083920;28;20024;-84
2021/06/07 08:33:24;;;;;;;45.03;33.70;;;18.90;99.90;;;21.74;67.23;101389.91;5086858;28;20127;-85
2021/06/07 08:35:50;;;;;;;45.92;31.90;;;19.50;99.90;;;22.13;64.61;101397.34;5080852;28;20028;-82
2021/06/07 08:38:17;;;;;;;36.47;27.30;;;19.80;99.90;;;23.01;62.91;101397.28;5084693;28;20032;-83
2021/06/07 08:40:46;;;;;;;34.42;28.08;;;20.40;99.90;;;23.23;60.60;101391.31;5082100;28;20103;-84
2021/06/07 08:43:13;;;;;;;39.78;29.88;;;20.70;99.90;;;23.30;60.05;101394.88;5094851;28;20075;-83
2021/06/07 08:45:39;;;;;;;37.55;28.65;;;20.90;99.90;;;23.51;58.75;101403.16;5078049;28;20036;-83
2021/06/07 08:48:06;;;;;;;43.60;32.83;;;21.10;99.90;;;23.43;58.00;101395.97;5076905;28;20028;-85
2021/06/07 08:50:33;;;;;;;40.75;32.20;;;21.20;99.90;;;23.42;57.62;101397.19;5077699;28;20499;-84
2021/06/07 08:52:59;;;;;;;38.28;30.50;;;21.20;99.90;;;23.98;56.67;101395.53;5077766;28;20034;-84
2021/06/07 08:55:29;;;;;;;36.85;30.08;;;21.60;99.90;;;24.12;56.44;101398.19;5079725;28;20021;-85
2021/06/07 08:57:57;;;;;;;31.23;27.05;;;21.70;99.90;;;24.48;55.26;101398.38;5078043;28;20028;-82
2021/06/07 09:00:29;;;;;;;36.97;26.13;;;22.00;99.90;;;25.17;52.71;101400.28;5078133;28;20035;-81
2021/06/07 09:03:13;;;;;;;30.65;25.38;;;22.60;99.90;;;25.37;51.70;101393.72;5077540;28;20777;-83
2021/06/07 09:05:44;;;;;;;29.92;25.33;;;23.10;99.90;;;26.14;49.65;101386.19;5090937;28;20031;-82
2021/06/07 09:08:16;;;;;;;31.48;25.50;;;23.60;99.90;;;26.14;49.70;101386.19;5077186;28;20028;-84
2021/06/07 09:10:53;;;;;;;34.00;26.85;;;23.60;99.90;;;26.55;48.09;101391.28;5077212;28;20054;-83
2021/06/07 09:13:28;;;;;;;30.33;24.95;;;24.00;99.90;;;26.99;47.81;101383.94;5077694;28;20037;-84
2021/06/07 09:15:59;;;;;;;29.75;23.73;;;24.40;99.90;;;26.33;49.05;101386.59;5077356;28;20024;-84
2021/06/07 09:18:44;;;;;;;27.88;24.77;;;23.80;99.90;;;25.00;52.09;101384.31;5078261;28;20020;-84
2021/06/07 09:21:24;;;;;;;24.67;21.50;;;22.80;99.90;;;23.93;54.87;101383.78;5078430;28;20484;-84
2021/06/07 09:24:05;;;;;;;28.73;22.92;;;21.90;99.90;;;23.24;58.01;101378.69;5077671;28;20016;-83
2021/06/07 09:26:39;;;;;;;31.52;24.15;;;21.30;99.90;;;22.65;59.43;101378.16;5073955;28;20021;-84
2021/06/07 09:29:18;;;;;;;30.27;24.52;;;20.70;99.90;;;22.41;59.83;101380.81;5078150;28;20047;-83
2021/06/07 09:31:53;;;;;;;26.27;21.38;;;20.40;99.90;;;22.32;60.50;101374.81;5078444;28;20100;-82
2021/06/07 09:34:35;;;;;;;25.58;21.92;;;20.30;99.90;;;22.21;61.40;101370.47;5078105;28;20029;-84
2021/06/07 09:37:10;;;;;;;30.08;23.40;;;20.20;99.90;;;22.17;61.26;101375.38;5076504;28;20460;-83
2021/06/07 09:39:40;;;;;;;26.27;21.88;;;20.20;99.90;;;22.16;60.33;101374.56;5077960;28;20173;-85
2021/06/07 09:42:20;;;;;;;20.63;18.15;;;20.10;99.90;;;22.42;60.00;101375.94;5078741;28;20037;-82
2021/06/07 09:44:54;;;;;;;24.95;20.55;;;20.40;99.90;;;22.52;58.78;101375.84;5076015;28;20025;-86
2021/06/07 09:47:35;;;;;;;25.05;19.80;;;20.60;99.90;;;22.60;58.47;101382.28;5076985;28;20098;-83
2021/06/07 09:50:10;;;;;;;20.98;16.65;;;20.70;99.90;;;22.79;57.94;101383.72;5078027;28;20024;-83
2021/06/07 09:52:44;;;;;;;21.17;18.98;;;20.80;99.90;;;22.95;56.66;101372.56;5078191;28;20078;-83
2021/06/07 09:55:28;;;;;;;19.38;15.75;;;20.80;99.90;;;22.81;58.44;101375.56;5077770;28;20035;-85
2021/06/07 09:58:07;;;;;;;19.50;15.13;;;20.70;99.90;;;22.30;57.88;101374.44;5077804;28;20082;-82
2021/06/07 10:00:48;;;;;;;14.90;13.48;;;20.50;99.90;;;21.85;58.91;101370.75;5077511;28;20480;-85
2021/06/07 10:03:28;;;;;;;14.82;12.35;;;20.30;99.90;;;21.45;59.90;101375.06;5060320;28;20040;-83
2021/06/07 10:06:02;;;;;;;13.35;10.68;;;19.90;99.90;;;21.16;60.83;101379.28;5078259;28;20558;-83
2021/06/07 10:08:45;;;;;;;13.80;11.65;;;19.60;99.90;;;20.89;62.72;101376.13;5080473;28;20028;-84
2021/06/07 10:11:32;;;;;;;12.20;10.50;;;19.30;99.90;;;20.62;64.16;101374.97;5080275;28;20028;-83